createdAt,value
2019-01-02T00:03:41.996Z,70.33
2019-01-02T00:08:43.890Z,70.33
2019-01-02T00:13:45.937Z,71.37
2019-01-02T00:18:47.821Z,72.29
2019-01-02T00:23:49.809Z,71.45
2019-01-02T00:28:52.058Z,71.62
2019-01-02T00:33:54.244Z,71.14
2019-01-02T00:38:56.662Z,71.73
2019-01-02T00:43:58.703Z,71.62
2019-01-02T00:49:00.722Z,71.48
2019-01-02T00:54:02.949Z,70.76
2019-01-02T00:59:04.871Z,71.71
2019-01-02T01:04:06.882Z,71.05
2019-01-02T01:09:08.953Z,71.44
2019-01-02T01:14:12.481Z,71.15
2019-01-02T01:19:14.371Z,72.10
2019-01-02T01:24:16.328Z,71.37
2019-01-02T01:29:18.252Z,71.71
2019-01-02T01:34:20.239Z,71.99
2019-01-02T01:39:22.145Z,71.42
2019-01-02T01:44:24.065Z,72.21
2019-01-02T01:49:26.562Z,71.60
2019-01-02T01:54:28.496Z,72.19
2019-01-02T01:59:30.680Z,72.26
2019-01-02T02:04:32.610Z,72.15
2019-01-02T02:09:34.805Z,72.53
2019-01-02T02:14:36.732Z,73.07
2019-01-02T02:19:38.614Z,72.30
2019-01-02T02:24:40.808Z,72.43
2019-01-02T02:29:43.017Z,73.20
2019-01-02T02:34:44.910Z,73.51
2019-01-02T02:39:46.799Z,73.28
2019-01-02T02:44:49.008Z,73.46
2019-01-02T02:49:51.307Z,73.87
2019-01-02T02:54:53.278Z,73.16
2019-01-02T02:59:55.211Z,72.83
2019-01-02T03:04:57.209Z,72.90
2019-01-02T03:09:59.499Z,72.48
2019-01-02T03:15:02.258Z,72.00
2019-01-02T03:20:05.116Z,72.41
2019-01-02T03:25:08.623Z,72.55
2019-01-02T03:30:13.490Z,72.47
2019-01-02T03:35:15.908Z,72.50
2019-01-02T03:40:17.816Z,72.45
2019-01-02T03:45:19.739Z,72.44
2019-01-02T03:50:21.735Z,72.19
2019-01-02T03:55:23.780Z,72.83
2019-01-02T04:00:26.100Z,72.42
2019-01-02T04:05:28.031Z,72.38
2019-01-02T04:10:29.969Z,71.80
2019-01-02T04:15:32.088Z,72.47
2019-01-02T04:20:33.978Z,71.99
2019-01-02T04:25:35.894Z,72.33
2019-01-02T04:30:37.843Z,72.52
2019-01-02T04:35:39.784Z,72.81
2019-01-02T04:40:41.730Z,72.71
2019-01-02T04:45:43.632Z,72.12
2019-01-02T04:50:45.545Z,71.42
2019-01-02T04:55:47.478Z,71.19
2019-01-02T05:00:49.566Z,70.77
2019-01-02T05:05:51.756Z,70.21
2019-01-02T05:10:53.893Z,70.74
2019-01-02T05:15:55.800Z,70.67
2019-01-02T05:20:57.707Z,69.74
2019-01-02T05:25:59.634Z,69.72
2019-01-02T05:31:01.663Z,68.57
2019-01-02T05:36:03.571Z,68.57
2019-01-02T05:41:05.486Z,67.68
2019-01-02T05:46:07.392Z,67.53
2019-01-02T05:51:09.291Z,66.93
2019-01-02T05:56:11.219Z,67.05
2019-01-02T06:01:14.129Z,66.28
2019-01-02T06:06:16.088Z,65.05
2019-01-02T06:11:18.299Z,65.84
2019-01-02T06:16:20.307Z,65.72
2019-01-02T06:21:22.218Z,64.83
2019-01-02T06:26:24.163Z,63.43
2019-01-02T06:31:26.195Z,63.42
2019-01-02T06:36:29.336Z,63.73
2019-01-02T06:41:31.257Z,62.77
2019-01-02T06:46:33.865Z,62.33
2019-01-02T06:51:35.760Z,62.69
2019-01-02T06:56:37.846Z,63.04
2019-01-02T07:01:39.867Z,63.07
2019-01-02T07:06:41.759Z,63.84
2019-01-02T07:11:43.919Z,64.82
2019-01-02T07:16:45.818Z,65.21
2019-01-02T07:21:47.746Z,65.74
2019-01-02T07:26:49.793Z,65.30
2019-01-02T07:31:51.966Z,65.77
2019-01-02T07:37:27.428Z,65.75
2019-01-02T07:43:10.443Z,64.97
2019-01-02T07:48:52.742Z,65.22
2019-01-02T07:54:52.372Z,64.68
2019-01-02T08:00:44.055Z,63.85
2019-01-02T08:06:50.675Z,63.97
2019-01-02T08:12:23.008Z,63.87
2019-01-02T08:17:59.460Z,64.97
2019-01-02T08:23:49.451Z,64.38
2019-01-02T08:29:42.156Z,64.15
2019-01-02T08:35:40.110Z,63.65
2019-01-02T08:41:15.595Z,62.44
2019-01-02T08:46:53.821Z,62.66
2019-01-02T08:52:37.639Z,61.79
2019-01-02T08:58:22.921Z,61.25
2019-01-02T09:03:40.777Z,61.25
2019-01-02T09:09:30.275Z,60.36
2019-01-02T09:14:56.388Z,60.76
2019-01-02T09:20:33.713Z,61.98
2019-01-02T09:26:06.456Z,62.66
2019-01-02T09:31:28.370Z,66.71
2019-01-02T09:37:10.815Z,69.78
2019-01-02T09:42:59.840Z,69.18
2019-01-02T09:48:30.633Z,66.20
2019-01-02T09:53:57.616Z,60.87
2019-01-02T09:59:36.584Z,60.47
2019-01-02T10:05:18.957Z,62.78
2019-01-02T10:10:51.502Z,63.25
2019-01-02T10:16:09.519Z,62.01
2019-01-02T10:21:31.078Z,59.28
2019-01-02T10:27:09.418Z,58.85
2019-01-02T10:32:38.906Z,59.72
2019-01-02T10:38:10.991Z,60.70
2019-01-02T10:43:50.297Z,61.29
2019-01-02T10:49:18.697Z,60.44
2019-01-02T10:54:47.776Z,60.38
2019-01-02T11:00:09.860Z,61.62
2019-01-02T11:06:06.236Z,59.94
2019-01-02T11:11:21.483Z,57.80
2019-01-02T11:16:52.403Z,58.80
2019-01-02T11:22:06.259Z,56.50
2019-01-02T11:28:04.290Z,56.44
2019-01-02T11:33:26.298Z,55.05
2019-01-02T11:38:48.652Z,53.75
2019-01-02T11:44:22.206Z,54.50
2019-01-02T11:49:24.117Z,54.61
2019-01-02T11:54:26.002Z,53.34
2019-01-02T11:59:27.930Z,53.08
2019-01-02T12:04:29.857Z,51.17
2019-01-02T12:09:31.745Z,51.17
2019-01-02T12:14:33.701Z,51.53
2019-01-02T12:19:35.862Z,52.54
2019-01-02T12:24:37.783Z,51.16
2019-01-02T12:29:39.749Z,49.38
2019-01-02T12:34:41.790Z,47.65
2019-01-02T12:39:43.679Z,46.27
2019-01-02T12:44:45.600Z,44.61
2019-01-02T12:49:47.519Z,44.61
2019-01-02T12:54:49.414Z,46.33
2019-01-02T12:59:51.428Z,45.37
2019-01-02T13:05:31.604Z,44.95
2019-01-02T13:10:41.060Z,44.43
2019-01-02T13:16:26.090Z,44.38
2019-01-02T13:21:49.928Z,43.47
2019-01-02T13:27:38.621Z,43.20
2019-01-02T13:32:57.420Z,42.12
2019-01-02T13:38:41.212Z,42.81
2019-01-02T13:44:09.735Z,43.71
2019-01-02T13:50:01.306Z,44.64
2019-01-02T13:55:07.685Z,44.69
2019-01-02T14:00:09.944Z,44.13
2019-01-02T14:05:15.205Z,46.37
2019-01-02T14:10:17.122Z,44.63
2019-01-02T14:15:19.098Z,44.94
2019-01-02T14:20:21.005Z,44.89
2019-01-02T14:25:22.957Z,44.49
2019-01-02T14:30:24.865Z,44.90
2019-01-02T14:35:26.972Z,45.25
2019-01-02T14:40:28.876Z,44.32
2019-01-02T14:45:31.115Z,52.16
2019-01-02T14:50:33.025Z,58.65
2019-01-02T14:55:35.265Z,61.71
2019-01-02T15:00:37.210Z,61.42
2019-01-02T15:05:39.118Z,61.60
2019-01-02T15:10:41.036Z,61.18
2019-01-02T15:15:43.479Z,62.28
2019-01-02T15:20:45.627Z,62.37
2019-01-02T15:25:47.600Z,62.08
2019-01-02T15:30:49.614Z,62.78
2019-01-02T15:35:51.525Z,60.86
2019-01-02T15:40:53.473Z,60.96
2019-01-02T15:45:55.396Z,61.97
2019-01-02T15:50:57.342Z,61.80
2019-01-02T15:55:59.359Z,62.09
2019-01-02T16:01:01.360Z,62.46
2019-01-02T16:06:04.424Z,62.75
2019-01-02T16:11:06.334Z,61.56
2019-01-02T16:16:10.134Z,62.53
2019-01-02T16:21:12.088Z,62.36
2019-01-02T16:26:14.012Z,62.25
2019-01-02T16:31:15.934Z,60.09
2019-01-02T16:36:17.877Z,53.30
2019-01-02T16:41:19.788Z,52.07
2019-01-02T16:46:21.730Z,51.75
2019-01-02T16:51:23.637Z,48.32
2019-01-02T16:56:25.587Z,48.98
2019-01-02T17:01:27.597Z,49.61
2019-01-02T17:06:29.500Z,49.63
2019-01-02T17:11:32.127Z,48.46
2019-01-02T17:16:34.111Z,48.19
2019-01-02T17:21:36.011Z,48.14
2019-01-02T17:26:37.958Z,49.05
2019-01-02T17:31:39.938Z,47.19
2019-01-02T17:36:42.199Z,47.70
2019-01-02T17:41:44.128Z,47.30
2019-01-02T17:46:46.185Z,47.43
2019-01-02T17:51:48.090Z,48.18
2019-01-02T17:56:50.059Z,49.78
2019-01-02T18:01:52.992Z,51.34
2019-01-02T18:06:54.890Z,47.98
2019-01-02T18:11:56.845Z,48.16
2019-01-02T18:16:58.780Z,47.68
2019-01-02T18:22:00.681Z,48.41
2019-01-02T18:27:02.917Z,49.82
2019-01-02T18:32:04.888Z,50.28
2019-01-02T18:37:06.795Z,50.54
2019-01-02T18:42:08.826Z,50.85
2019-01-02T18:47:10.743Z,50.43
2019-01-02T18:52:12.644Z,50.82
2019-01-02T18:57:15.078Z,51.63
2019-01-02T19:02:16.979Z,52.00
2019-01-02T19:07:18.881Z,49.45
2019-01-02T19:12:20.799Z,49.20
2019-01-02T19:17:22.730Z,50.17
2019-01-02T19:22:24.679Z,51.03
2019-01-02T19:27:26.619Z,52.63
2019-01-02T19:32:28.570Z,52.40
2019-01-02T19:37:30.636Z,53.64
2019-01-02T19:42:32.565Z,52.31
2019-01-02T19:47:34.505Z,53.14
2019-01-02T19:52:36.447Z,54.35
2019-01-02T19:57:38.343Z,54.61
2019-01-02T20:02:40.243Z,56.00
2019-01-02T20:07:42.177Z,57.00
2019-01-02T20:12:44.559Z,55.73
2019-01-02T20:24:16.654Z,56.07
2019-01-02T20:29:18.566Z,54.60
2019-01-02T20:34:20.510Z,55.37
2019-01-02T20:39:22.419Z,55.26
2019-01-02T20:44:24.334Z,55.56
2019-01-02T20:49:26.657Z,56.32
2019-01-02T20:54:28.575Z,56.71
2019-01-02T20:59:30.490Z,57.66
2019-01-02T21:04:32.409Z,59.31
2019-01-02T21:09:34.315Z,60.53
2019-01-02T21:14:36.519Z,60.90
2019-01-02T21:19:38.519Z,61.47
2019-01-02T21:24:40.761Z,62.66
2019-01-02T21:29:42.671Z,62.30
2019-01-02T21:34:44.589Z,63.00
2019-01-02T21:39:46.511Z,63.29
2019-01-02T21:44:49.447Z,62.61
2019-01-02T21:49:51.523Z,62.62
2019-01-02T21:54:53.539Z,63.17
2019-01-02T21:59:55.448Z,64.06
2019-01-02T22:04:57.378Z,64.54
2019-01-02T22:09:59.284Z,64.99
2019-01-02T22:15:01.208Z,64.82
2019-01-02T22:20:03.677Z,65.14
2019-01-02T22:25:06.359Z,65.99
2019-01-02T22:30:08.616Z,66.15
2019-01-02T22:35:10.616Z,66.32
2019-01-02T22:40:12.529Z,66.70
2019-01-02T22:45:14.620Z,66.66
2019-01-02T22:50:16.574Z,67.03
2019-01-02T22:55:18.483Z,65.80
2019-01-02T23:00:38.893Z,65.25
2019-01-02T23:06:00.310Z,65.25
2019-01-02T23:11:20.387Z,65.59
2019-01-02T23:16:58.932Z,64.97
2019-01-02T23:22:19.727Z,65.23
2019-01-02T23:27:46.936Z,65.90
2019-01-02T23:33:11.533Z,66.53
2019-01-02T23:38:31.901Z,66.48
2019-01-02T23:43:54.751Z,66.60
2019-01-02T23:49:15.326Z,66.72
